Nearby METAR Reports

 

KBAX - Bad Axe, Michigan, USA
Distance from station: ESE 22mi, 35km
Updated: Fri, 26-May-2017 8:37pm EDT
Partly cloudy
Partly cloudy
 Wind from calm
Wind: Calm
Temperature: 61°F , 16°C
Dew Point: 54°F , 12°C
Humidity: 77%
Barometer: 29.88 inHg , 1011.9 hPa
Clouds: Partly cloudy
Visibility: 10 miles , 16 km
Cloud details: Partly cloudy 6000 ft
2017/05/27 00:37 KBAX 270037Z AUTO 00000KT 10SM SCT060 16/12 A2988 RMK AO2 T01600121
KFNT - Flint, Michigan, USA
Distance from station: SSW 68mi, 109km
Updated: Fri, 26-May-2017 7:53pm EDT
Clear
Clear
 Wind from SSW
Wind: SSW 3 mph , 6 km/h
Temperature: 66°F , 19°C
Dew Point: 52°F , 11°C
Humidity: 60%
Barometer: 29.87 inHg , 1011.5 hPa
Clouds: Clear
Visibility: 10 miles , 16 km
2017/05/26 23:53 KFNT 262353Z 20003KT 10SM CLR 19/11 A2987 RMK AO2 SLP113 T01890111 10211 20167 53007
KMBS - Saginaw, Michigan, USA
Distance from station: SW 44mi, 70km
Updated: Fri, 26-May-2017 7:53pm EDT
Clear
Clear
 Wind from SSW
Wind: SSW 5 mph , 7 km/h
Temperature: 68°F , 20°C
Dew Point: 55°F , 13°C
Humidity: 64%
Barometer: 29.86 inHg , 1011.2 hPa
Clouds: Clear
Visibility: 10 miles , 16 km
2017/05/26 23:53 KMBS 262353Z 21004KT 10SM CLR 20/13 A2986 RMK AO2 SLP109 T02000128 10211 20183 51007 $
 
KDTW - Detroit/Wayne, Michigan, USA
Distance from station: SSE 117mi, 188km
Updated: Fri, 26-May-2017 7:53pm EDT
Overcast
Overcast
 Wind from WNW
Wind: WNW 3 mph , 6 km/h
Temperature: 68°F , 20°C
Dew Point: 54°F , 12°C
Humidity: 60%
Barometer: 29.88 inHg , 1011.9 hPa
Clouds: Overcast
Visibility: 10 miles , 16 km
Cloud details: Few Clouds 5000 ft
Partly cloudy 12000 ft
Overcast 18000 ft
2017/05/26 23:53 KDTW 262353Z 30003KT 10SM FEW050 SCT120 OVC180 20/12 A2988 RMK AO2 SLP116 T02000117 10217 20183 53006
KP58 - Port Hope, Michigan, USA
Distance from station: ENE 30mi, 48km
Updated: Fri, 26-May-2017 7:51pm EDT

 Wind from calm
Wind: Calm
Temperature: 57°F , 14°C
Dew Point: 54°F , 12°C
Humidity: 88%
Barometer: 29.86 inHg , 1011.2 hPa
2017/05/26 23:51 KP58 262351Z AUTO 00000KT 14/12 A2986 RMK AO1 SLP113 T01390117 10156 20133 51010
KCFS - Caro/Tuscola, Michigan, USA
Distance from station: S 31mi, 50km
Updated: Fri, 26-May-2017 8:34pm EDT
Clear
Clear
 Wind from calm
Wind: Calm
Temperature: 63°F , 17°C
Dew Point: 55°F , 13°C
Humidity: 77%
Barometer: 29.87 inHg , 1011.5 hPa
Clouds: Clear
Visibility: 10 miles , 16 km
2017/05/27 00:34 KCFS 270034Z AUTO 00000KT 10SM CLR 17/13 A2987 RMK AO2 T01670129
 
KPHN - Port Huron, Michigan, USA
Distance from station: SSE 81mi, 131km
Updated: Fri, 26-May-2017 8:36pm EDT
Partly cloudy
Partly cloudy
 Wind from calm
Wind: Calm
Temperature: 59°F , 15°C
Dew Point: 54°F , 12°C
Humidity: 82%
Barometer: 29.89 inHg , 1012.2 hPa
Clouds: Partly cloudy
Visibility: 10 miles , 16 km
Cloud details: Partly cloudy 5000 ft
2017/05/27 00:36 KPHN 270036Z AUTO 00000KT 10SM SCT050 15/12 A2989 RMK AO2
KPTK - Pontiac, Michigan, USA
Distance from station: S 86mi, 138km
Updated: Fri, 26-May-2017 7:53pm EDT
Overcast
Overcast
 Wind from SW
Wind: SW 6 mph , 9 km/h
Temperature: 64°F , 18°C
Dew Point: 52°F , 11°C
Humidity: 64%
Barometer: 29.86 inHg , 1011.2 hPa
Clouds: Overcast
Visibility: 10 miles , 16 km
Cloud details: Few Clouds 4800 ft
Mostly cloudy 12000 ft
Overcast 24000 ft
2017/05/26 23:53 KPTK 262353Z 23005KT 10SM FEW048 BKN120 OVC240 18/11 A2986 RMK AO2 SLP112 T01830106 10194 20167 51005
KMTC - Selfridge Angb, Michigan, USA
Distance from station: SSE 94mi, 151km
Updated: Fri, 26-May-2017 7:58pm EDT
Mostly cloudy
Mostly cloudy
 Wind from ESE
Wind: ESE 5 mph , 7 km/h
Temperature: 64°F , 18°C
Dew Point: 57°F , 14°C
Humidity: 78%
Barometer: 29.86 inHg , 1011.2 hPa
Clouds: Mostly cloudy
Visibility: 10 miles , 16 km
Cloud details: Few Clouds 5000 ft
Few Clouds 12000 ft
Mostly cloudy 23000 ft
2017/05/26 23:58 KMTC 262358Z 12004KT 10SM FEW050 FEW120 BKN230 18/14 A2986 RMK AO2A SLP114 T01760141 10199 20165 51007